CYYU

Kapuskasing Airport

Kapuskasing, Ontario, Canada
METAR CYYU 220600Z 21003KT 15SM SKC M03/M09 A3034 RMK SLP289
Observed Flight Rules
Apr-22 @ 06:00 UTC (51 minutes ago) Visual Flight Rules
Wind Visibility Clouds
210° at 3 knots 15 miles
  • Clear skies
Temperatures Readings
Current -3°C / 27°F
Dewpoint -9°C / 16°F
Humidity 64%
Altimeter 30.34" Hg
Pressure 1028.9 hPa
Elevation 227
METAR CYYU 220600Z 21003KT 15SM SKC M03/M09 A3034 RMK SLP289
Observed Flight Rules
Apr-22 @ 06:00 UTC
(51 minutes ago)
VFR
Wind Visibility
210° at 3 knots 15 miles
Clouds
  • Clear skies
Temperature Dewpoint
-3°C / 27°F -9°C / 16°F
Humidity Altimeter Pressure
64% 30.34" Hg 1028.9 hPa